Time;durP1;ratioP1;P1;durP2;ratioP2;P2;SDS_P1;SDS_P2;PMS_P1;PMS_P2;Temp;Humidity;BMP_temperature;BMP_pressure;BME280_temperature;BME280_humidity;BME280_pressure;Samples;Min_cycle;Max_cycle;Signal;HPM_P1;HPM_P2
2021/06/30 00:02:36;;;;;;;1.50;1.40;;;22.50;80.20;22.30;96227.00;;;;5078280;28;20215;-65
2021/06/30 00:05:31;;;;;;;4.37;1.30;;;22.50;80.90;22.20;96218.00;;;;5104107;28;20198;-65
2021/06/30 00:08:26;;;;;;;4.63;1.60;;;22.40;81.20;22.00;96207.00;;;;5103244;28;20871;-62
2021/06/30 00:11:20;;;;;;;1.93;1.27;;;22.30;82.10;22.00;96203.00;;;;5084365;28;20246;-65
2021/06/30 00:14:14;;;;;;;3.60;1.20;;;22.20;82.40;21.90;96214.00;;;;5093911;28;20213;-64
2021/06/30 00:17:10;;;;;;;2.07;1.70;;;22.10;83.30;21.70;96209.00;;;;5102520;28;20222;-65
2021/06/30 00:20:07;;;;;;;3.33;1.60;;;22.00;84.60;21.70;96216.00;;;;5104677;28;20716;-67
2021/06/30 00:23:02;;;;;;;1.83;1.27;;;21.90;82.30;21.70;96220.00;;;;5103321;28;20256;-65
2021/06/30 00:25:56;;;;;;;1.97;1.27;;;21.90;84.00;21.60;96214.00;;;;5100303;28;20686;-66
2021/06/30 00:28:51;;;;;;;2.03;1.53;;;21.80;85.00;21.50;96208.00;;;;5105401;28;20194;-66
2021/06/30 00:31:44;;;;;;;3.10;1.37;;;21.80;85.00;21.50;96219.00;;;;5104782;28;20237;-64
2021/06/30 00:34:38;;;;;;;1.60;1.33;;;21.70;85.40;21.40;96218.00;;;;5102913;28;20201;-64
2021/06/30 00:37:32;;;;;;;6.33;1.43;;;21.70;86.70;21.30;96213.00;;;;5084547;28;20681;-65
2021/06/30 00:40:27;;;;;;;3.27;1.43;;;21.60;87.50;21.20;96220.00;;;;5083353;28;20207;-66
2021/06/30 00:43:21;;;;;;;3.80;1.80;;;21.50;88.20;21.10;96211.00;;;;5093561;28;20191;-68
2021/06/30 00:46:14;;;;;;;2.00;1.53;;;21.40;89.40;21.10;96218.00;;;;5105385;28;20206;-65
2021/06/30 00:49:10;;;;;;;4.57;1.57;;;21.30;89.40;21.00;96218.00;;;;5108413;28;20661;-64
2021/06/30 00:52:05;;;;;;;3.30;1.57;;;21.30;90.10;21.00;96227.00;;;;5109094;28;20222;-66
2021/06/30 00:54:59;;;;;;;1.93;1.17;;;21.20;88.50;20.90;96219.00;;;;5109594;28;20194;-64
2021/06/30 00:57:54;;;;;;;3.90;2.17;;;21.20;89.50;20.80;96208.00;;;;5097151;28;20229;-65
2021/06/30 01:01:07;;;;;;;1.10;1.00;;;21.10;90.70;20.70;96215.00;;;;5105024;28;20297;-66
2021/06/30 01:04:01;;;;;;;2.47;1.40;;;21.00;91.10;20.90;96214.00;;;;5108723;28;20203;-66
2021/06/30 01:06:54;;;;;;;2.07;1.40;;;21.00;90.30;20.80;96212.00;;;;5108759;28;20206;-66
2021/06/30 01:09:48;;;;;;;4.67;1.27;;;21.00;90.10;20.70;96206.00;;;;5108151;28;20206;-68
2021/06/30 01:12:42;;;;;;;3.30;1.90;;;21.00;90.10;20.60;96213.00;;;;5097023;28;20570;-65
2021/06/30 01:15:54;;;;;;;5.33;1.27;;;20.90;90.60;20.40;96209.00;;;;5099639;28;20199;-65
2021/06/30 01:18:49;;;;;;;3.10;1.37;;;20.80;91.30;20.50;96229.00;;;;5095590;28;20673;-66
2021/06/30 01:21:42;;;;;;;3.30;1.50;;;20.70;91.20;20.50;96222.00;;;;5108037;28;20226;-64
2021/06/30 01:24:38;;;;;;;2.17;1.50;;;20.70;91.40;20.30;96219.00;;;;5105826;28;20198;-64
2021/06/30 01:27:34;;;;;;;2.17;1.37;;;20.60;91.40;20.20;96229.00;;;;5107900;28;20550;-65
2021/06/30 01:30:28;;;;;;;2.33;1.20;;;20.60;92.10;20.30;96228.00;;;;5097105;28;20202;-63
2021/06/30 01:33:23;;;;;;;2.43;1.57;;;20.50;91.80;20.20;96220.00;;;;5088998;28;20210;-64
2021/06/30 01:36:16;;;;;;;1.57;1.20;;;20.50;92.30;20.20;96219.00;;;;5087838;28;20214;-65
2021/06/30 01:39:10;;;;;;;2.57;1.47;;;20.50;92.30;20.20;96232.00;;;;5107886;28;20190;-65
2021/06/30 01:42:06;;;;;;;3.40;1.23;;;20.50;92.20;20.30;96220.00;;;;5086992;28;20678;-64
2021/06/30 01:44:59;;;;;;;1.70;1.20;;;20.40;91.50;20.20;96216.00;;;;5107817;28;20198;-64
2021/06/30 01:47:54;;;;;;;1.73;0.83;;;20.40;91.70;20.10;96212.00;;;;5108538;28;20199;-66
2021/06/30 01:50:49;;;;;;;1.10;1.03;;;19.40;91.10;20.20;96213.00;;;;5103045;28;20202;-64
2021/06/30 01:53:43;;;;;;;2.00;1.30;;;20.30;91.20;20.10;96205.00;;;;5107517;28;20191;-62
2021/06/30 01:56:37;;;;;;;1.37;1.10;;;20.30;91.90;20.00;96207.00;;;;5107919;28;20222;-64
2021/06/30 01:59:32;;;;;;;4.70;1.30;;;20.30;91.40;19.90;96215.00;;;;5086023;28;20199;-64
2021/06/30 02:02:28;;;;;;;3.27;1.20;;;20.20;91.60;19.80;96218.00;;;;5086099;28;20215;-64
2021/06/30 02:05:23;;;;;;;4.73;1.50;;;20.20;91.70;19.60;96219.00;;;;5086920;28;20580;-64
2021/06/30 02:08:18;;;;;;;3.03;1.40;;;20.10;92.50;19.50;96213.00;;;;5106314;28;20198;-64
2021/06/30 02:11:11;;;;;;;3.20;1.50;;;20.00;93.30;19.20;96206.00;;;;5097799;28;20222;-62
2021/06/30 02:14:06;;;;;;;5.77;2.50;;;19.80;94.10;19.10;96211.00;;;;5104910;28;20194;-66
2021/06/30 02:17:01;;;;;;;1.43;1.13;;;19.60;95.00;19.00;96206.00;;;;5103024;28;20543;-65
2021/06/30 02:19:56;;;;;;;1.60;0.93;;;19.50;95.60;19.10;96203.00;;;;5103928;28;20206;-67
2021/06/30 02:22:51;;;;;;;1.60;1.20;;;19.40;95.90;19.10;96208.00;;;;5107311;28;20226;-65
2021/06/30 02:25:44;;;;;;;7.00;2.30;;;19.40;95.90;19.20;96198.00;;;;5108811;28;20201;-65
2021/06/30 02:28:38;;;;;;;1.23;1.17;;;19.30;95.20;19.20;96203.00;;;;5096298;28;20197;-64
2021/06/30 02:31:32;;;;;;;1.27;1.10;;;19.40;96.00;19.30;96196.00;;;;5106959;28;20225;-66
2021/06/30 02:34:27;;;;;;;3.00;1.60;;;19.40;95.40;19.60;96205.00;;;;5105029;28;20198;-64
2021/06/30 02:37:21;;;;;;;2.80;1.30;;;19.50;93.80;19.40;96207.00;;;;5106571;28;20220;-63
2021/06/30 02:40:18;;;;;;;1.80;1.70;;;19.50;94.70;19.40;96211.00;;;;5106031;28;20561;-64
2021/06/30 02:43:11;;;;;;;3.40;1.73;;;19.60;94.40;19.30;96201.00;;;;5104305;28;20203;-65
2021/06/30 02:46:05;;;;;;;2.53;1.40;;;19.60;95.10;19.20;96211.00;;;;5107678;28;20194;-64
2021/06/30 02:49:00;;;;;;;4.57;1.60;;;19.50;95.60;18.90;96209.00;;;;5107311;28;20199;-65
2021/06/30 02:51:55;;;;;;;1.70;1.43;;;19.40;96.20;18.80;96217.00;;;;5107591;28;20229;-63
2021/06/30 02:54:48;;;;;;;6.40;1.80;;;19.30;96.90;18.60;96210.00;;;;5104498;28;20669;-61
2021/06/30 02:57:42;;;;;;;6.07;1.73;;;19.20;97.70;18.70;96219.00;;;;5104839;28;20707;-61
2021/06/30 03:00:36;;;;;;;3.07;1.33;;;19.00;98.40;18.70;96223.00;;;;5106394;28;20202;-65
2021/06/30 03:03:30;;;;;;;3.13;1.63;;;19.00;99.20;18.70;96228.00;;;;5085864;28;20579;-62
2021/06/30 03:06:23;;;;;;;3.53;1.40;;;19.00;99.90;18.50;96237.00;;;;5107045;28;20198;-62
2021/06/30 03:09:21;;;;;;;6.27;2.10;;;18.90;99.90;18.50;96244.00;;;;5106680;28;20698;-65
2021/06/30 03:12:15;;;;;;;3.37;2.30;;;18.90;99.90;18.30;96233.00;;;;5105646;28;20210;-64
2021/06/30 03:15:11;;;;;;;3.03;1.50;;;18.80;99.90;18.20;96242.00;;;;5107023;28;20206;-65
2021/06/30 03:18:05;;;;;;;3.07;1.50;;;18.70;99.90;18.00;96244.00;;;;5104144;28;20215;-66
2021/06/30 03:21:02;;;;;;;2.77;2.20;;;18.60;99.90;18.00;96236.00;;;;5101902;28;20222;-65
2021/06/30 03:23:56;;;;;;;1.77;1.50;;;18.50;99.90;17.40;96243.00;;;;5107097;28;20199;-64
2021/06/30 03:26:51;;;;;;;5.03;2.50;;;18.30;99.90;17.30;96242.00;;;;5107959;28;20220;-65
2021/06/30 03:29:45;;;;;;;6.77;2.00;;;18.10;99.90;17.10;96246.00;;;;5106731;28;20195;-67
2021/06/30 03:32:40;;;;;;;2.30;2.13;;;17.90;99.90;16.80;96248.00;;;;5105723;28;20234;-62
2021/06/30 03:35:33;;;;;;;5.90;2.20;;;17.60;99.90;17.00;96255.00;;;;5106272;28;20195;-63
2021/06/30 03:38:29;;;;;;;3.33;2.00;;;17.50;99.90;17.20;96253.00;;;;5103494;28;20207;-65
2021/06/30 03:41:23;;;;;;;2.60;2.23;;;17.50;99.90;16.80;96263.00;;;;5095455;28;20219;-65
2021/06/30 03:44:18;;;;;;;2.23;2.00;;;17.40;99.90;16.90;96263.00;;;;5092160;28;20207;-63
2021/06/30 03:47:11;;;;;;;3.60;2.07;;;17.30;99.90;16.90;96278.00;;;;5099750;28;20210;-66
2021/06/30 03:50:07;;;;;;;2.73;1.90;;;17.30;99.90;17.00;96269.00;;;;5092304;28;20198;-65
2021/06/30 03:53:01;;;;;;;2.33;1.73;;;17.30;99.90;17.20;96274.00;;;;5072339;28;20227;-66
2021/06/30 03:55:55;;;;;;;3.73;2.03;;;17.30;99.90;17.40;96265.00;;;;5089560;28;20206;-65
2021/06/30 03:58:48;;;;;;;7.23;1.80;;;17.40;99.90;17.40;96266.00;;;;5080830;28;20234;-65
2021/06/30 04:01:44;;;;;;;7.10;2.33;;;17.50;99.90;17.20;96276.00;;;;5084411;28;20729;-65
2021/06/30 04:04:38;;;;;;;4.33;2.10;;;17.50;99.90;17.10;96281.00;;;;5074291;28;20687;-66
2021/06/30 04:07:32;;;;;;;4.40;2.23;;;17.50;99.90;17.10;96287.00;;;;5084641;28;20528;-65
2021/06/30 04:10:26;;;;;;;3.57;2.20;;;17.40;99.90;17.30;96281.00;;;;5074534;28;20675;-66
2021/06/30 04:13:21;;;;;;;3.77;1.93;;;17.40;99.90;17.40;96289.00;;;;5070967;28;20203;-66
2021/06/30 04:16:14;;;;;;;4.20;2.00;;;17.50;99.90;17.40;96287.00;;;;5084476;28;20211;-66
2021/06/30 04:19:09;;;;;;;4.13;2.20;;;17.60;99.90;17.10;96299.00;;;;5087727;28;20233;-66
2021/06/30 04:22:04;;;;;;;3.90;2.00;;;17.60;99.90;17.30;96285.00;;;;5093668;28;20214;-65
2021/06/30 04:24:57;;;;;;;2.13;1.93;;;17.50;99.90;17.50;96291.00;;;;5074340;28;20574;-64
2021/06/30 04:27:51;;;;;;;3.00;2.03;;;17.60;99.90;17.40;96290.00;;;;5085561;28;20209;-66
2021/06/30 04:30:45;;;;;;;8.43;2.57;;;17.60;99.90;17.30;96307.00;;;;5084725;28;20210;-62
2021/06/30 04:33:39;;;;;;;4.43;2.43;;;17.70;99.90;17.20;96297.00;;;;5081060;28;20226;-65
2021/06/30 04:36:34;;;;;;;4.10;2.17;;;17.60;99.90;17.50;96292.00;;;;5086402;28;20218;-65
2021/06/30 04:39:28;;;;;;;3.53;2.10;;;17.70;99.90;17.70;96296.00;;;;5077908;28;20227;-64
2021/06/30 04:42:21;;;;;;;4.20;1.60;;;17.70;99.90;17.70;96280.00;;;;5073863;28;20742;-65
2021/06/30 04:45:15;;;;;;;2.70;2.47;;;17.90;99.90;17.80;96289.00;;;;5085370;28;20199;-66
2021/06/30 04:48:09;;;;;;;4.03;1.93;;;17.90;99.90;17.80;96299.00;;;;5085492;28;20226;-65
2021/06/30 04:51:03;;;;;;;3.03;1.93;;;18.00;99.90;17.70;96300.00;;;;5081606;28;20247;-64
2021/06/30 04:53:58;;;;;;;2.97;2.03;;;18.10;99.90;17.70;96299.00;;;;5085293;28;20701;-65
2021/06/30 04:56:52;;;;;;;3.10;2.03;;;18.00;99.90;17.80;96303.00;;;;5077295;28;20211;-64
2021/06/30 04:59:46;;;;;;;3.50;2.00;;;18.10;99.90;17.90;96294.00;;;;5085391;28;20230;-65
2021/06/30 05:02:39;;;;;;;6.03;2.43;;;18.10;99.90;18.20;96293.00;;;;5085763;28;20603;-64
2021/06/30 05:05:33;;;;;;;2.30;1.93;;;18.20;99.90;18.30;96297.00;;;;5085159;28;20199;-65
2021/06/30 05:08:27;;;;;;;3.73;2.27;;;18.30;99.90;18.40;96296.00;;;;5085631;28;20757;-65
2021/06/30 05:11:22;;;;;;;3.50;1.80;;;18.40;99.90;18.50;96295.00;;;;5076219;28;20230;-64
2021/06/30 05:14:15;;;;;;;2.67;2.33;;;18.50;99.90;18.60;96299.00;;;;5086000;28;20211;-64
2021/06/30 05:17:09;;;;;;;7.03;2.43;;;18.60;99.90;18.70;96292.00;;;;5082329;28;20215;-66
2021/06/30 05:20:04;;;;;;;2.80;2.00;;;18.70;99.90;18.80;96300.00;;;;5066422;28;20238;-66
2021/06/30 05:22:58;;;;;;;5.17;1.80;;;18.90;99.90;18.70;96299.00;;;;5083366;28;20702;-61
2021/06/30 05:25:52;;;;;;;3.50;1.93;;;18.90;99.90;18.90;96286.00;;;;5085371;28;20663;-60
2021/06/30 05:28:47;;;;;;;4.07;1.97;;;19.00;99.90;19.10;96295.00;;;;5085221;28;20210;-64
2021/06/30 05:31:41;;;;;;;2.63;2.27;;;19.10;99.90;19.30;96295.00;;;;5083526;28;20241;-64
2021/06/30 05:34:34;;;;;;;3.13;1.83;;;19.20;99.90;19.60;96288.00;;;;5083689;28;20203;-63
2021/06/30 05:37:28;;;;;;;3.33;2.10;;;19.40;99.90;20.00;96296.00;;;;5087098;28;20214;-64
2021/06/30 05:40:22;;;;;;;4.97;1.83;;;19.60;99.90;20.30;96301.00;;;;5085610;28;20230;-64
2021/06/30 05:43:16;;;;;;;4.70;2.20;;;19.80;99.90;20.60;96297.00;;;;5087316;28;20615;-64
2021/06/30 05:46:11;;;;;;;2.50;2.20;;;20.10;99.90;20.90;96302.00;;;;5086943;28;20591;-65
2021/06/30 05:49:05;;;;;;;5.33;1.97;;;20.40;99.90;21.00;96300.00;;;;5076208;28;20206;-64
2021/06/30 05:51:59;;;;;;;5.73;2.50;;;20.60;99.90;21.20;96295.00;;;;5086994;28;20226;-64
2021/06/30 05:54:52;;;;;;;3.13;2.57;;;20.80;99.90;21.40;96311.00;;;;5098947;28;20206;-65
2021/06/30 05:57:46;;;;;;;4.77;2.43;;;21.00;99.90;21.70;96301.00;;;;5099253;28;20457;-64
2021/06/30 06:00:42;;;;;;;5.90;1.93;;;21.20;99.90;21.80;96303.00;;;;5104938;28;20194;-65
2021/06/30 06:03:37;;;;;;;4.17;2.20;;;21.40;99.90;22.10;96306.00;;;;5090004;28;20199;-64
2021/06/30 06:06:30;;;;;;;2.67;1.97;;;21.70;99.90;22.30;96305.00;;;;5106314;28;20202;-66
2021/06/30 06:09:24;;;;;;;3.60;2.33;;;21.80;99.90;22.40;96308.00;;;;5103776;28;20703;-65
2021/06/30 06:12:18;;;;;;;7.50;2.00;;;22.10;99.90;22.50;96300.00;;;;5099043;28;20219;-63
2021/06/30 06:15:13;;;;;;;2.83;1.50;;;22.30;99.90;22.70;96305.00;;;;5106715;28;20210;-62
2021/06/30 06:18:08;;;;;;;3.77;1.70;;;22.40;99.90;22.70;96307.00;;;;5097464;28;20194;-65
2021/06/30 06:21:04;;;;;;;3.90;1.73;;;22.50;99.90;22.90;96301.00;;;;5092481;28;20580;-66
2021/06/30 06:23:58;;;;;;;3.63;1.33;;;22.70;99.90;23.00;96290.00;;;;5104406;28;20993;-65
2021/06/30 06:26:52;;;;;;;4.13;1.67;;;22.80;99.90;23.20;96304.00;;;;5098755;28;20194;-63
2021/06/30 06:29:48;;;;;;;5.13;2.00;;;22.90;99.40;23.20;96293.00;;;;5093515;28;20195;-63
2021/06/30 06:32:42;;;;;;;2.47;1.57;;;23.10;98.00;23.30;96300.00;;;;5108059;28;20227;-66
2021/06/30 06:35:37;;;;;;;3.23;1.83;;;23.20;97.10;23.40;96294.00;;;;5107645;28;20198;-62
2021/06/30 06:38:33;;;;;;;4.00;1.87;;;23.30;95.10;23.60;96289.00;;;;5107436;28;20198;-65
2021/06/30 06:41:27;;;;;;;1.93;1.53;;;23.40;94.90;23.80;96295.00;;;;5105909;28;20445;-64
2021/06/30 06:44:21;;;;;;;2.63;1.50;;;23.50;94.80;23.90;96290.00;;;;5107740;28;20590;-66
2021/06/30 06:47:15;;;;;;;6.23;2.33;;;23.60;94.30;23.90;96291.00;;;;5106668;28;20210;-64
2021/06/30 06:50:10;;;;;;;3.90;2.07;;;23.80;93.00;24.10;96300.00;;;;5107242;28;20601;-63
2021/06/30 06:53:04;;;;;;;4.63;2.03;;;23.90;92.50;24.10;96301.00;;;;5106437;28;20230;-65
2021/06/30 06:56:01;;;;;;;2.40;2.00;;;24.00;92.10;24.00;96302.00;;;;5105114;28;20199;-66
2021/06/30 06:58:56;;;;;;;4.87;2.13;;;24.10;92.50;24.00;96299.00;;;;5100901;28;20186;-63
2021/06/30 07:01:50;;;;;;;9.47;2.67;;;24.10;92.20;23.90;96303.00;;;;5093854;28;20218;-65
2021/06/30 07:04:43;;;;;;;4.80;2.13;;;24.10;92.70;24.00;96295.00;;;;5107843;28;20206;-64
2021/06/30 07:07:40;;;;;;;2.93;2.63;;;24.10;94.00;23.50;96289.00;;;;5106741;28;20199;-66
2021/06/30 07:10:34;;;;;;;3.63;2.57;;;24.10;92.70;23.50;96288.00;;;;5086209;28;20225;-68
2021/06/30 07:13:29;;;;;;;3.83;1.77;;;23.90;92.60;23.90;96290.00;;;;5095293;28;20210;-69
2021/06/30 07:16:23;;;;;;;3.80;2.33;;;23.90;94.20;23.50;96282.00;;;;5106244;28;20211;-67
2021/06/30 07:19:17;;;;;;;5.57;3.63;;;23.90;93.80;23.60;96288.00;;;;5105785;28;20226;-66
2021/06/30 07:22:11;;;;;;;3.50;2.20;;;23.90;94.30;24.10;96294.00;;;;5104414;28;20222;-65
2021/06/30 07:25:05;;;;;;;5.47;2.27;;;23.90;95.60;24.30;96298.00;;;;5103275;28;20198;-67
2021/06/30 07:27:59;;;;;;;9.50;3.87;;;24.10;94.70;24.50;96295.00;;;;5093253;28;20215;-64
2021/06/30 07:30:54;;;;;;;3.70;2.50;;;24.20;94.80;24.60;96280.00;;;;5105485;28;20700;-67
2021/06/30 07:33:48;;;;;;;3.40;2.33;;;24.40;94.40;24.20;96282.00;;;;5105592;28;20199;-64
2021/06/30 07:36:42;;;;;;;6.43;1.97;;;24.50;93.90;23.60;96273.00;;;;5106176;28;20201;-67
2021/06/30 07:39:36;;;;;;;8.20;2.40;;;24.40;92.80;24.20;96278.00;;;;5104473;28;20226;-65
2021/06/30 07:42:30;;;;;;;6.83;2.30;;;24.30;93.40;24.10;96280.00;;;;5106258;28;20219;-67
2021/06/30 07:45:24;;;;;;;3.67;1.90;;;24.40;92.80;24.50;96277.00;;;;5104667;28;20421;-63
2021/06/30 07:48:14;;;;;;;9.43;2.30;;;24.40;93.60;24.80;96280.00;;;;5106866;28;20214;-67
2021/06/30 07:51:03;;;;;;;3.23;1.60;;;24.50;93.60;25.00;96277.00;;;;5105063;28;20697;-64
2021/06/30 07:53:52;;;;;;;2.13;1.73;;;24.70;93.40;25.20;96278.00;;;;5105239;28;20647;-66
2021/06/30 07:56:41;;;;;;;8.33;2.40;;;24.90;93.40;25.40;96273.00;;;;5104859;28;20700;-66
2021/06/30 07:59:30;;;;;;;4.33;2.23;;;25.10;93.00;25.60;96289.00;;;;5105011;28;20229;-70
2021/06/30 08:02:18;;;;;;;10.07;2.67;;;25.30;92.60;25.10;96272.00;;;;5095308;28;20226;-66
2021/06/30 08:05:11;;;;;;;5.87;2.00;;;25.40;90.60;25.50;96277.00;;;;5105718;28;20194;-67
2021/06/30 08:08:00;;;;;;;3.90;1.70;;;25.40;91.10;25.80;96275.00;;;;5105593;28;20685;-69
2021/06/30 08:10:49;;;;;;;6.03;2.57;;;25.50;91.30;26.00;96276.00;;;;5092053;28;20211;-64
2021/06/30 08:13:38;;;;;;;3.97;2.30;;;25.70;90.80;26.10;96283.00;;;;5104951;28;20260;-66
2021/06/30 08:16:27;;;;;;;9.30;1.77;;;25.80;90.40;26.10;96284.00;;;;5104802;28;20195;-65
2021/06/30 08:19:15;;;;;;;3.57;2.13;;;26.00;89.60;25.60;96291.00;;;;5105183;28;20215;-65
2021/06/30 08:22:10;;;;;;;4.47;1.80;;;26.00;87.00;25.90;96283.00;;;;5101295;28;20728;-67
2021/06/30 08:24:58;;;;;;;3.07;2.03;;;25.90;88.20;26.30;96293.00;;;;5104311;28;20199;-67
2021/06/30 08:27:47;;;;;;;3.63;1.73;;;26.00;88.50;26.50;96289.00;;;;5104224;28;20685;-66
2021/06/30 08:30:36;;;;;;;2.87;1.70;;;26.10;88.10;26.40;96289.00;;;;5104571;28;20204;-65
2021/06/30 08:33:25;;;;;;;11.03;2.33;;;26.30;87.20;26.50;96293.00;;;;5104932;28;20662;-65
2021/06/30 08:36:14;;;;;;;4.37;1.83;;;26.40;85.80;26.50;96289.00;;;;5104193;28;20203;-66
2021/06/30 08:39:05;;;;;;;7.43;2.33;;;26.50;85.60;26.30;96287.00;;;;5102821;28;20722;-66
2021/06/30 08:41:54;;;;;;;3.10;1.83;;;26.40;83.30;26.40;96285.00;;;;5100162;28;20224;-65
2021/06/30 08:44:43;;;;;;;5.53;2.10;;;26.40;83.40;26.40;96288.00;;;;5103711;28;20214;-66
2021/06/30 08:47:35;;;;;;;4.60;2.03;;;26.40;82.50;26.30;96293.00;;;;5105387;28;20204;-64
2021/06/30 08:50:25;;;;;;;5.10;2.50;;;26.40;82.10;26.90;96285.00;;;;5102910;28;20210;-64
2021/06/30 08:53:15;;;;;;;2.80;1.80;;;26.50;83.60;27.10;96279.00;;;;5095222;28;20581;-66
2021/06/30 08:56:06;;;;;;;6.67;2.30;;;26.60;83.30;26.70;96287.00;;;;5097488;28;20198;-63
2021/06/30 08:58:55;;;;;;;3.70;1.97;;;26.70;81.30;26.90;96279.00;;;;5097162;28;20209;-66
2021/06/30 09:01:45;;;;;;;7.20;2.53;;;26.70;82.50;26.60;96293.00;;;;5101525;28;20229;-66
2021/06/30 09:04:39;;;;;;;2.40;1.70;;;26.80;81.60;27.00;96284.00;;;;5104369;28;20216;-67
2021/06/30 09:07:28;;;;;;;2.97;2.00;;;26.80;80.10;26.20;96275.00;;;;5105545;28;20204;-67
2021/06/30 09:10:33;;;;;;;4.87;2.27;;;26.70;78.90;27.10;96286.00;;;;5095064;28;20205;-64
2021/06/30 09:13:26;;;;;;;5.03;2.20;;;26.70;81.90;27.30;96273.00;;;;5107912;28;20200;-68
2021/06/30 09:16:15;;;;;;;4.27;2.10;;;26.80;82.40;27.40;96277.00;;;;5109114;28;20201;-67
2021/06/30 09:19:04;;;;;;;5.97;1.63;;;27.10;82.60;26.70;96270.00;;;;5104563;28;20216;-68
2021/06/30 09:21:59;;;;;;;4.93;2.00;;;27.10;80.60;27.10;96264.00;;;;5088336;28;20241;-64
2021/06/30 09:24:48;;;;;;;6.57;2.80;;;27.00;81.10;27.60;96275.00;;;;5077196;28;20212;-65
2021/06/30 09:27:42;;;;;;;5.67;3.00;;;27.10;80.60;27.70;96280.00;;;;5088922;28;20228;-65
2021/06/30 09:30:32;;;;;;;3.17;1.83;;;27.30;80.50;27.80;96282.00;;;;5087716;28;20210;-66
2021/06/30 09:33:20;;;;;;;6.17;2.27;;;27.50;80.20;27.90;96275.00;;;;5088637;28;20213;-65
2021/06/30 09:36:09;;;;;;;6.50;2.80;;;27.60;78.50;28.20;96277.00;;;;5089169;28;20576;-64
2021/06/30 09:39:07;;;;;;;4.20;2.73;;;27.80;78.80;28.10;96287.00;;;;5088586;28;20700;-66
2021/06/30 09:42:05;;;;;;;5.13;2.13;;;27.90;79.00;27.90;96282.00;;;;5088366;28;20299;-66
2021/06/30 09:45:12;;;;;;;7.23;2.50;;;27.90;77.10;28.00;96272.00;;;;5089063;28;20230;-65
2021/06/30 09:48:02;;;;;;;4.23;2.20;;;27.90;77.20;28.30;96272.00;;;;5080151;28;20204;-65
2021/06/30 09:50:51;;;;;;;7.27;2.70;;;28.00;77.80;28.90;96275.00;;;;5092423;28;20211;-67
2021/06/30 09:53:42;;;;;;;6.87;2.53;;;28.20;77.30;28.90;96283.00;;;;5085127;28;20663;-65
2021/06/30 09:56:35;;;;;;;6.00;2.17;;;28.50;75.10;28.80;96279.00;;;;5088830;28;20201;-66
2021/06/30 09:59:27;;;;;;;7.50;3.10;;;28.70;75.10;29.20;96265.00;;;;5087707;28;20209;-65
2021/06/30 10:02:18;;;;;;;7.70;2.00;;;28.80;73.90;29.30;96249.00;;;;5086709;27;20238;-65
2021/06/30 10:05:09;;;;;;;7.80;2.60;;;29.00;73.00;29.40;96252.00;;;;5096767;28;20216;-64
2021/06/30 10:08:13;;;;;;;6.23;2.80;;;29.00;73.10;29.50;96263.00;;;;5087130;28;20256;-65
2021/06/30 10:11:11;;;;;;;4.33;1.60;;;29.10;72.20;29.10;96260.00;;;;5084185;28;20225;-64
2021/06/30 10:14:01;;;;;;;8.27;2.77;;;29.00;71.80;28.60;96246.00;;;;5079121;28;20198;-67
2021/06/30 10:16:50;;;;;;;6.23;1.90;;;28.90;70.10;29.40;96249.00;;;;5080827;28;20207;-63
2021/06/30 10:19:42;;;;;;;9.80;2.73;;;29.00;71.80;30.10;96246.00;;;;5062433;28;20755;-64
2021/06/30 10:22:40;;;;;;;3.17;1.77;;;29.20;72.80;29.70;96254.00;;;;5076651;28;20327;-64
2021/06/30 10:25:29;;;;;;;5.73;2.07;;;29.40;70.90;30.00;96237.00;;;;5079186;28;20199;-67
2021/06/30 10:28:18;;;;;;;5.80;2.17;;;29.70;69.70;29.50;96274.00;;;;5077590;28;20906;-64
2021/06/30 10:31:07;;;;;;;3.53;1.93;;;29.70;67.90;28.40;96286.00;;;;5086549;28;20230;-67
2021/06/30 10:34:03;;;;;;;3.63;2.07;;;29.20;68.00;28.10;96264.00;;;;5086360;28;20598;-67
2021/06/30 10:36:54;;;;;;;5.47;2.20;;;28.80;68.70;28.10;96272.00;;;;5072324;28;20200;-65
2021/06/30 10:39:47;;;;;;;5.57;2.03;;;28.50;70.00;28.00;96267.00;;;;5065025;28;20200;-64
2021/06/30 10:42:38;;;;;;;7.83;2.80;;;28.30;71.10;27.80;96278.00;;;;5087661;28;20609;-64
2021/06/30 10:45:29;;;;;;;5.50;1.73;;;28.20;71.70;27.10;96262.00;;;;5086751;28;20211;-64
2021/06/30 10:48:21;;;;;;;6.97;2.40;;;27.90;71.50;27.20;96279.00;;;;5084408;28;20555;-64
2021/06/30 10:51:46;;;;;;;8.80;2.30;;;27.70;71.00;28.60;96249.00;;;;5086438;28;20314;-65
2021/06/30 10:54:46;;;;;;;5.50;1.73;;;27.80;72.40;29.60;96257.00;;;;5066961;28;20202;-65
2021/06/30 10:57:34;;;;;;;5.23;2.07;;;28.30;72.70;27.50;96283.00;;;;5076560;28;20685;-67
2021/06/30 11:00:23;;;;;;;3.63;1.90;;;28.20;70.80;28.20;96284.00;;;;5087492;28;20225;-68
2021/06/30 11:03:31;;;;;;;2.67;1.50;;;28.20;73.30;28.00;96272.00;;;;5083546;28;20218;-66
2021/06/30 11:06:31;;;;;;;6.17;2.13;;;28.10;69.30;28.20;96276.00;;;;5085904;28;20237;-65
2021/06/30 11:09:26;;;;;;;4.53;2.60;;;28.00;72.00;28.20;96280.00;;;;5085207;28;20220;-65
2021/06/30 11:12:16;;;;;;;5.97;1.90;;;28.10;70.00;28.10;96272.00;;;;5077535;28;20229;-66
2021/06/30 11:15:05;;;;;;;7.30;2.30;;;28.00;71.60;29.10;96266.00;;;;5075596;28;20209;-67
2021/06/30 11:17:54;;;;;;;5.57;2.40;;;28.40;74.00;28.20;96280.00;;;;5085630;28;20208;-68
2021/06/30 11:20:47;;;;;;;3.67;2.43;;;28.30;71.50;27.70;96283.00;;;;5084646;28;20218;-66
2021/06/30 11:23:43;;;;;;;5.17;1.70;;;28.10;70.00;27.30;96267.00;;;;5077987;28;20230;-66
2021/06/30 11:26:38;;;;;;;3.30;1.37;;;27.80;71.40;27.20;96260.00;;;;5082521;28;20213;-65
2021/06/30 11:29:51;;;;;;;4.57;1.70;;;27.50;73.30;27.00;96280.00;;;;5075174;28;20197;-66
2021/06/30 11:32:48;;;;;;;4.67;2.33;;;27.30;73.90;26.50;96258.00;;;;5071841;28;20222;-66
2021/06/30 11:35:39;;;;;;;5.60;2.00;;;27.10;73.80;26.40;96239.00;;;;5087825;28;20776;-65
2021/06/30 11:38:29;;;;;;;3.00;1.90;;;26.80;75.00;26.50;96242.00;;;;5086191;28;20588;-67
2021/06/30 11:41:24;;;;;;;2.10;1.80;;;26.70;75.30;26.40;96231.00;;;;5084334;28;20250;-66
2021/06/30 11:44:13;;;;;;;3.33;1.80;;;26.70;76.20;26.70;96228.00;;;;5085439;28;20209;-66
2021/06/30 11:47:07;;;;;;;5.63;1.93;;;26.70;76.60;26.70;96158.00;;;;5086139;28;20364;-65
2021/06/30 11:50:02;;;;;;;5.50;2.03;;;26.70;76.10;27.40;96208.00;;;;5084260;28;20228;-65
2021/06/30 11:52:52;;;;;;;4.97;2.07;;;26.90;76.80;28.70;96122.00;;;;5086052;28;20602;-67
2021/06/30 11:55:43;;;;;;;8.53;1.83;;;27.30;76.90;29.20;96194.00;;;;5084518;28;20486;-66
2021/06/30 11:58:52;;;;;;;3.17;1.80;;;27.90;76.10;29.60;96136.00;;;;5086363;28;20206;-66
2021/06/30 12:01:41;;;;;;;4.67;1.73;;;28.50;73.20;29.30;96193.00;;;;5084441;28;20729;-67
2021/06/30 12:04:32;;;;;;;3.90;1.77;;;28.80;72.70;28.90;96152.00;;;;5084755;28;20197;-67
2021/06/30 12:07:21;;;;;;;3.77;1.87;;;28.80;72.10;30.90;96128.00;;;;5085017;28;20351;-67
2021/06/30 12:10:11;;;;;;;2.60;1.40;;;29.40;72.50;29.90;96185.00;;;;5075651;28;20573;-66
2021/06/30 12:13:01;;;;;;;2.15;1.90;;;29.70;70.50;28.80;96198.00;;;;5081339;28;20225;-64
2021/06/30 12:15:50;;;;;;;4.63;1.90;;;29.40;67.60;28.50;96182.00;;;;5088902;28;20228;-65
2021/06/30 12:18:41;;;;;;;2.90;1.70;;;29.10;68.30;28.20;96165.00;;;;5080283;28;20230;-66
2021/06/30 12:21:38;;;;;;;3.80;1.57;;;28.80;68.50;28.10;96168.00;;;;5083870;28;20230;-67
2021/06/30 12:24:27;;;;;;;3.13;2.13;;;28.50;69.40;29.30;96172.00;;;;5081293;28;20279;-66
2021/06/30 12:27:16;;;;;;;4.50;2.53;;;28.60;69.90;28.90;96156.00;;;;5076216;28;20217;-66
2021/06/30 12:30:08;;;;;;;3.60;1.53;;;28.70;68.20;30.10;96117.00;;;;5083592;28;20200;-67
2021/06/30 12:32:59;;;;;;;3.33;1.77;;;29.00;70.60;29.60;96150.00;;;;5082512;28;20220;-66
2021/06/30 12:35:50;;;;;;;2.50;1.30;;;29.10;70.10;28.20;96169.00;;;;5081307;28;20196;-64
2021/06/30 12:38:40;;;;;;;6.43;1.70;;;28.90;68.20;28.00;96181.00;;;;5084455;28;20566;-64
2021/06/30 12:41:29;;;;;;;5.53;1.80;;;28.60;68.50;27.80;96166.00;;;;5084605;28;20227;-64
2021/06/30 12:44:18;;;;;;;7.57;1.77;;;28.30;69.20;27.50;96167.00;;;;5087730;28;20575;-63
2021/06/30 12:47:13;;;;;;;4.53;1.60;;;28.00;69.50;27.50;96155.00;;;;5087717;28;20598;-64
2021/06/30 12:50:07;;;;;;;2.67;1.67;;;27.90;70.20;27.00;96160.00;;;;5088928;28;20239;-64
2021/06/30 12:53:06;;;;;;;3.70;1.67;;;27.60;71.20;26.70;96146.00;;;;5085329;28;20215;-65